Time;durP1;ratioP1;P1;durP2;ratioP2;P2;SDS_P1;SDS_P2;PMS_P1;PMS_P2;Temp;Humidity;BMP_temperature;BMP_pressure;BME280_temperature;BME280_humidity;BME280_pressure;Samples;Min_cycle;Max_cycle;Signal;HPM_P1;HPM_P2
2023/01/10 00:01:13;;;;;;;41.10;26.50;;;;;;;5.96;95.12;99587.71;215897;1254;61020;-75
2023/01/10 00:06:07;;;;;;;41.00;25.50;;;;;;;5.96;94.99;99598.73;215954;1254;60461;-75
2023/01/10 00:13:22;;;;;;;38.70;26.10;;;;;;;5.96;94.87;99602.66;215828;1254;61034;-75
2023/01/10 00:16:13;;;;;;;43.40;26.60;;;;;;;5.96;94.76;99609.90;215747;1255;60443;-74
2023/01/10 00:21:08;;;;;;;37.60;23.80;;;;;;;5.95;94.78;99611.77;215862;1254;60607;-75
2023/01/10 00:26:01;;;;;;;38.30;27.40;;;;;;;5.95;94.72;99608.49;215994;1254;60618;-75
2023/01/10 00:30:59;;;;;;;37.60;24.80;;;;;;;5.96;94.68;99615.58;215742;1254;60480;-74
2023/01/10 00:35:53;;;;;;;38.00;25.70;;;;;;;5.97;94.56;99629.01;215769;1259;72553;-74
2023/01/10 00:40:46;;;;;;;38.20;25.50;;;;;;;5.96;94.56;99640.88;215889;1257;60467;-74
2023/01/10 00:45:39;;;;;;;34.60;22.10;;;;;;;5.96;94.64;99641.73;215826;1256;65386;-74
2023/01/10 00:50:32;;;;;;;36.50;23.80;;;;;;;5.95;94.54;99646.33;215804;1254;60456;-74
2023/01/10 00:55:25;;;;;;;44.40;25.20;;;;;;;5.95;94.58;99650.27;215781;1257;60536;-74
2023/01/10 01:00:18;;;;;;;41.20;25.20;;;;;;;5.94;94.61;99650.27;215790;1254;61036;-74
2023/01/10 01:05:10;;;;;;;38.30;24.40;;;;;;;5.93;94.59;99655.40;215891;1254;60476;-74
2023/01/10 01:15:14;;;;;;;41.20;26.00;;;;;;;5.91;94.68;99665.69;215858;1254;60587;-74
2023/01/10 01:20:08;;;;;;;46.50;27.50;;;;;;;5.91;94.55;99672.57;215880;1257;60449;-75
2023/01/10 01:25:01;;;;;;;47.30;27.70;;;;;;;5.92;94.63;99677.58;215910;1254;72317;-74
2023/01/10 01:29:54;;;;;;;47.60;27.40;;;;;;;5.91;94.54;99675.67;215922;1253;60418;-75
2023/01/10 01:34:46;;;;;;;44.30;25.50;;;;;;;5.91;94.47;99685.45;215845;1254;67213;-74
2023/01/10 01:39:39;;;;;;;46.60;27.20;;;;;;;5.90;94.49;99691.11;215786;1257;60451;-74
2023/01/10 01:44:36;;;;;;;47.80;27.70;;;;;;;5.89;94.48;99690.41;215828;1254;61091;-75
2023/01/10 01:49:32;;;;;;;54.00;28.70;;;;;;;5.88;94.43;99686.26;215902;1254;71107;-75
2023/01/10 01:54:26;;;;;;;52.90;26.80;;;;;;;5.88;94.49;99695.02;215802;1257;60537;-74
2023/01/10 01:59:24;;;;;;;51.50;27.60;;;;;;;5.87;94.51;99695.36;215984;1254;66943;-74
2023/01/10 02:04:24;;;;;;;49.10;26.70;;;;;;;5.85;94.68;99693.78;215903;1254;60479;-74
2023/01/10 02:09:26;;;;;;;50.60;28.70;;;;;;;5.85;94.60;99698.25;215866;1254;74045;-74
2023/01/10 02:14:20;;;;;;;47.10;26.40;;;;;;;5.84;94.55;99702.17;215887;1253;71580;-74
2023/01/10 02:19:25;;;;;;;53.90;30.70;;;;;;;5.84;94.40;99703.89;215915;1253;60443;-74
2023/01/10 02:24:37;;;;;;;51.40;28.30;;;;;;;5.84;94.59;99708.89;215826;1253;67457;-74
2023/01/10 02:30:07;;;;;;;53.50;28.30;;;;;;;5.84;94.51;99710.09;215800;1256;61129;-74
2023/01/10 02:35:27;;;;;;;43.70;25.40;;;;;;;5.84;94.54;99717.48;215847;1253;71929;-74
2023/01/10 02:40:50;;;;;;;47.30;27.10;;;;;;;5.83;94.49;99720.05;215859;1254;73719;-74
2023/01/10 02:45:50;;;;;;;52.60;30.80;;;;;;;5.81;94.56;99725.85;215822;1254;60466;-74
2023/01/10 02:50:43;;;;;;;49.40;28.00;;;;;;;5.81;94.53;99731.53;215823;1254;67263;-74
2023/01/10 02:56:15;;;;;;;52.80;28.30;;;;;;;5.81;94.47;99732.23;215891;1254;60526;-74
2023/01/10 03:01:46;;;;;;;46.60;27.90;;;;;;;5.82;94.53;99739.63;215851;1253;74605;-74
2023/01/10 03:07:00;;;;;;;52.90;27.50;;;;;;;5.81;94.50;99742.02;215789;1257;71740;-74
2023/01/10 03:12:02;;;;;;;50.40;30.20;;;;;;;5.82;94.57;99749.08;215913;1254;60470;-75
2023/01/10 03:17:00;;;;;;;49.10;28.40;;;;;;;5.83;94.47;99756.32;215825;1253;68089;-74
2023/01/10 03:22:00;;;;;;;49.80;29.80;;;;;;;5.83;94.59;99752.55;215834;1257;60473;-74
2023/01/10 03:27:09;;;;;;;48.80;28.50;;;;;;;5.84;94.51;99751.35;215960;1254;71696;-74
2023/01/10 03:32:07;;;;;;;55.30;29.00;;;;;;;5.83;94.57;99759.42;215879;1253;71977;-74
2023/01/10 03:37:03;;;;;;;;;;;;;;;5.84;94.63;99768.21;215831;1254;60441;-74
2023/01/10 03:42:07;;;;;;;47.20;26.60;;;;;;;5.83;94.68;99776.29;215943;1253;65273;-74
2023/01/10 03:47:18;;;;;;;50.50;28.00;;;;;;;5.83;94.64;99785.21;215901;1256;60533;-74
2023/01/10 03:52:15;;;;;;;45.30;26.10;;;;;;;5.83;94.67;99787.27;216021;1253;72328;-74
2023/01/10 03:57:08;;;;;;;47.80;27.50;;;;;;;5.82;94.56;99792.08;215860;1254;71324;-74
2023/01/10 04:02:01;;;;;;;54.00;30.00;;;;;;;5.81;94.56;99802.03;215908;1256;60529;-74
2023/01/10 04:06:54;;;;;;;52.60;29.40;;;;;;;5.80;94.55;99802.54;215892;1254;60505;-74
2023/01/10 04:11:47;;;;;;;52.10;28.70;;;;;;;5.81;94.55;99807.20;215849;1254;62164;-73
2023/01/10 04:16:40;;;;;;;49.60;28.90;;;;;;;5.81;94.51;99812.19;215904;1254;60482;-74
2023/01/10 04:21:33;;;;;;;47.30;28.50;;;;;;;5.82;94.57;99819.07;215916;1257;60479;-74
2023/01/10 04:26:25;;;;;;;60.20;30.20;;;;;;;5.81;94.47;99829.38;215683;1254;60492;-73
2023/01/10 04:31:18;;;;;;;52.10;30.30;;;;;;;5.81;94.51;99835.73;215873;1253;60465;-74
2023/01/10 04:36:12;;;;;;;56.10;30.00;;;;;;;5.81;94.60;99839.19;215858;1253;61050;-74
2023/01/10 04:41:05;;;;;;;58.50;28.70;;;;;;;5.81;94.57;99838.15;215940;1253;60460;-74
2023/01/10 04:45:58;;;;;;;54.90;29.00;;;;;;;5.81;94.42;99849.66;215820;1254;60428;-74
2023/01/10 04:50:53;;;;;;;53.50;30.40;;;;;;;5.80;94.37;99860.32;215807;1254;60595;-74
2023/01/10 04:55:46;;;;;;;54.90;30.10;;;;;;;5.80;94.46;99878.02;215821;1254;66969;-74
2023/01/10 05:00:39;;;;;;;51.80;28.70;;;;;;;5.80;94.42;99889.21;215790;1254;60543;-74
2023/01/10 05:05:32;;;;;;;54.10;29.40;;;;;;;5.80;94.36;99898.83;215841;1254;73466;-74
2023/01/10 05:10:25;;;;;;;52.00;28.70;;;;;;;5.81;94.44;99911.22;215768;1254;60419;-74
2023/01/10 05:15:19;;;;;;;49.60;28.90;;;;;;;5.80;94.41;99915.86;215932;1254;60540;-74
2023/01/10 05:20:13;;;;;;;54.80;28.80;;;;;;;5.79;94.44;99922.72;215868;1253;67789;-74
2023/01/10 05:25:06;;;;;;;56.20;29.40;;;;;;;5.80;94.49;99925.34;215803;1257;60511;-73
2023/01/10 05:29:59;;;;;;;50.80;28.20;;;;;;;5.80;94.42;99929.45;215760;1254;74805;-74
2023/01/10 05:34:53;;;;;;;56.20;28.50;;;;;;;5.80;94.31;99937.86;215768;1256;60287;-73
2023/01/10 05:39:45;;;;;;;54.20;30.30;;;;;;;5.79;94.35;99946.79;215668;1254;61001;-75
2023/01/10 05:44:39;;;;;;;50.50;28.80;;;;;;;5.80;94.36;99954.89;215901;1256;60501;-74
2023/01/10 05:49:32;;;;;;;55.70;28.50;;;;;;;5.80;94.40;99967.81;215807;1253;60420;-74
2023/01/10 05:54:26;;;;;;;54.00;29.30;;;;;;;5.80;94.32;99978.30;215874;1256;73807;-74
2023/01/10 05:59:19;;;;;;;50.70;27.50;;;;;;;5.80;94.50;99984.47;215865;1254;72687;-75
2023/01/10 06:04:20;;;;;;;52.50;28.10;;;;;;;5.80;94.35;99994.11;215912;1255;60555;-75
2023/01/10 06:09:12;;;;;;;56.10;28.20;;;;;;;5.80;94.38;100005.30;215864;1254;60621;-75
2023/01/10 06:14:06;;;;;;;54.10;28.90;;;;;;;5.80;94.40;100021.45;215870;1254;60413;-75
2023/01/10 06:18:59;;;;;;;53.90;29.60;;;;;;;5.80;94.47;100027.13;215838;1254;72742;-75
2023/01/10 06:23:52;;;;;;;46.90;28.20;;;;;;;5.79;94.40;100029.52;215814;1254;60624;-75
2023/01/10 06:28:45;;;;;;;56.00;29.40;;;;;;;5.79;94.41;100033.10;215855;1254;60444;-74
2023/01/10 06:33:40;;;;;;;53.00;27.10;;;;;;;5.77;94.32;100039.95;215832;1254;60464;-74
2023/01/10 06:38:33;;;;;;;56.00;28.70;;;;;;;5.77;94.21;100045.27;215889;1254;60458;-74
2023/01/10 06:43:26;;;;;;;52.90;28.30;;;;;;;5.77;94.32;100048.02;215787;1255;60546;-75
2023/01/10 06:48:18;;;;;;;62.70;29.20;;;;;;;5.77;94.18;100056.12;215712;1253;60473;-75
2023/01/10 06:53:11;;;;;;;57.40;29.90;;;;;;;5.77;94.22;100064.70;215873;1254;60452;-74
2023/01/10 06:58:04;;;;;;;61.50;31.60;;;;;;;5.78;94.28;100070.23;215846;1254;60476;-75
2023/01/10 07:03:00;;;;;;;51.90;29.60;;;;;;;5.79;94.28;100076.97;215885;1256;60470;-74
2023/01/10 07:07:53;;;;;;;53.60;28.60;;;;;;;5.79;94.04;100086.96;215834;1256;74691;-74
2023/01/10 07:12:46;;;;;;;60.70;32.00;;;;;;;5.81;94.18;100092.33;215857;1254;60657;-75
2023/01/10 07:17:39;;;;;;;65.30;33.60;;;;;;;5.82;94.05;100099.93;215760;1256;60407;-74
2023/01/10 07:22:32;;;;;;;67.40;37.30;;;;;;;5.82;94.13;100098.55;215669;1254;67218;-75
2023/01/10 07:27:25;;;;;;;58.10;31.50;;;;;;;5.83;94.06;100096.69;215623;1255;60464;-75
2023/01/10 07:32:18;;;;;;;54.40;28.80;;;;;;;5.84;93.90;100096.87;215772;1254;60571;-75
2023/01/10 07:37:11;;;;;;;60.30;33.80;;;;;;;5.85;93.91;100098.45;215732;1254;60472;-75
2023/01/10 07:42:04;;;;;;;54.10;29.10;;;;;;;5.86;93.86;100098.84;215780;1254;60428;-74
2023/01/10 07:46:57;;;;;;;59.00;31.60;;;;;;;5.87;93.91;100106.45;215702;1254;60552;-74
2023/01/10 07:51:50;;;;;;;59.70;29.10;;;;;;;5.88;93.78;100107.48;215684;1254;60463;-75
2023/01/10 07:56:43;;;;;;;74.40;41.20;;;;;;;5.88;93.79;100111.96;215850;1254;62997;-75
2023/01/10 08:01:36;;;;;;;71.90;34.50;;;;;;;5.90;93.73;100116.67;215645;1254;61354;-75
2023/01/10 08:06:29;;;;;;;67.90;35.50;;;;;;;5.93;93.58;100125.86;215417;1254;60663;-75
2023/01/10 08:11:22;;;;;;;67.80;36.00;;;;;;;5.96;93.63;100134.88;215622;1254;60463;-75
2023/01/10 08:16:15;;;;;;;64.10;32.20;;;;;;;5.98;93.61;100143.73;215624;1254;60438;-76
2023/01/10 08:21:09;;;;;;;69.60;33.30;;;;;;;5.99;93.59;100155.80;215534;1254;60544;-75
2023/01/10 08:26:04;;;;;;;53.10;28.50;;;;;;;5.99;93.55;100161.13;215644;1253;73480;-76
2023/01/10 08:30:57;;;;;;;69.10;34.00;;;;;;;5.99;93.36;100172.48;215642;1254;60451;-72
2023/01/10 08:35:51;;;;;;;66.90;31.30;;;;;;;6.00;93.49;100177.52;215624;1254;60450;-74
2023/01/10 08:40:44;;;;;;;53.20;28.60;;;;;;;6.03;93.41;100182.41;215678;1254;60563;-75
2023/01/10 08:45:38;;;;;;;58.00;29.40;;;;;;;6.03;93.15;100191.52;215692;1254;74622;-75
2023/01/10 08:50:31;;;;;;;63.80;31.90;;;;;;;6.03;92.99;100199.26;215666;1254;71842;-75
2023/01/10 08:55:26;;;;;;;56.50;27.30;;;;;;;6.04;93.02;100210.11;215621;1255;61322;-75
2023/01/10 09:00:20;;;;;;;63.80;31.10;;;;;;;6.04;92.86;100216.66;215595;1254;66928;-74
2023/01/10 09:05:13;;;;;;;57.90;30.10;;;;;;;6.05;92.99;100229.95;215710;1256;60495;-75
2023/01/10 09:10:20;;;;;;;62.00;30.10;;;;;;;6.06;92.89;100231.69;215591;1254;73794;-76
2023/01/10 09:15:13;;;;;;;59.70;28.80;;;;;;;6.08;92.93;100235.88;215832;1258;73535;-75
2023/01/10 09:20:08;;;;;;;65.30;31.20;;;;;;;6.11;92.66;100239.41;215707;1254;60897;-75
2023/01/10 09:25:02;;;;;;;61.10;27.90;;;;;;;6.17;92.66;100245.21;215893;1256;68161;-75
2023/01/10 09:29:55;;;;;;;55.10;28.10;;;;;;;6.20;92.36;100240.15;215814;1254;63244;-75
2023/01/10 09:34:48;;;;;;;55.80;27.30;;;;;;;6.24;92.47;100244.23;215851;1254;60480;-75
2023/01/10 09:39:41;;;;;;;63.90;29.20;;;;;;;6.24;92.32;100250.42;215818;1258;60458;-75
2023/01/10 09:44:46;;;;;;;50.40;24.60;;;;;;;6.22;92.29;100244.35;216937;1256;60685;-76
2023/01/10 09:49:41;;;;;;;;;;;;;;;6.22;92.19;100239.02;218245;1256;66912;-74
2023/01/10 09:54:42;;;;;;;46.10;24.80;;;;;;;6.25;92.14;100229.62;218183;1255;58523;-76
2023/01/10 09:59:41;;;;;;;54.80;26.40;;;;;;;6.31;92.05;100227.70;216739;1255;73572;-75
2023/01/10 10:04:37;;;;;;;50.60;25.70;;;;;;;6.33;91.90;100234.15;215757;1256;72620;-74
2023/01/10 10:09:33;;;;;;;56.50;27.70;;;;;;;6.32;91.82;100233.27;215785;1256;60419;-75
2023/01/10 10:15:05;;;;;;;52.90;25.70;;;;;;;6.29;91.94;100227.81;215844;1253;65520;-75
2023/01/10 10:20:03;;;;;;;61.10;29.10;;;;;;;6.27;92.11;100225.87;214797;1262;61044;-75
2023/01/10 10:25:11;;;;;;;62.90;28.20;;;;;;;6.25;92.18;100231.19;214810;1260;74422;-74
2023/01/10 10:30:19;;;;;;;;;;;;;;;6.25;92.03;100244.06;214792;1262;70711;-74
2023/01/10 10:35:18;;;;;;;55.90;27.00;;;;;;;6.24;92.15;100251.27;214810;1261;60816;-74
2023/01/10 10:40:14;;;;;;;56.20;28.60;;;;;;;6.24;92.22;100255.05;214784;1265;66868;-74
2023/01/10 10:45:28;;;;;;;53.90;28.80;;;;;;;6.23;92.14;100260.02;214763;1261;60431;-74
2023/01/10 10:50:32;;;;;;;56.40;28.40;;;;;;;6.21;91.86;100262.55;214838;1261;74026;-75
2023/01/10 10:55:33;;;;;;;56.20;27.30;;;;;;;6.20;91.99;100260.13;215727;1255;73957;-74
2023/01/10 11:00:26;;;;;;;52.40;28.50;;;;;;;6.20;91.99;100259.42;215727;1254;60561;-74
2023/01/10 11:05:29;;;;;;;52.20;26.10;;;;;;;6.19;91.92;100255.45;215839;1256;66457;-75
2023/01/10 11:10:37;;;;;;;52.60;26.40;;;;;;;6.17;91.78;100266.05;215788;1256;60534;-74
2023/01/10 11:15:46;;;;;;;46.50;27.50;;;;;;;6.15;91.85;100271.34;215607;1254;193740;-75
2023/01/10 11:20:52;;;;;;;63.40;29.20;;;;;;;6.13;92.06;100278.35;215779;1254;71442;-75
2023/01/10 11:25:48;;;;;;;49.40;26.50;;;;;;;6.16;92.13;100290.27;215898;1256;61220;-76
2023/01/10 11:30:48;;;;;;;49.90;27.10;;;;;;;6.19;92.22;100296.91;215814;1256;67810;-75
2023/01/10 11:36:00;;;;;;;43.70;22.80;;;;;;;6.21;92.03;100309.54;215734;1254;60425;-74
2023/01/10 11:41:22;;;;;;;47.70;23.50;;;;;;;6.20;92.13;100323.27;215701;1256;73420;-75
2023/01/10 11:46:21;;;;;;;50.90;26.30;;;;;;;6.23;91.95;100325.08;215722;1256;72347;-75
2023/01/10 11:51:30;;;;;;;50.20;24.40;;;;;;;6.26;91.87;100328.43;215714;1259;60451;-75
2023/01/10 11:56:27;;;;;;;48.70;25.00;;;;;;;6.28;91.91;100333.31;215772;1256;67914;-75
2023/01/10 12:01:37;;;;;;;39.30;21.20;;;;;;;6.24;91.76;100336.98;215719;1254;61042;-75
2023/01/10 12:06:30;;;;;;;48.70;25.00;;;;;;;6.18;91.78;100339.05;215690;1256;73832;-74
2023/01/10 12:11:40;;;;;;;51.70;25.60;;;;;;;6.14;91.87;100344.29;215608;1258;70405;-78
2023/01/10 12:16:40;;;;;;;49.10;26.30;;;;;;;6.11;91.95;100351.77;215952;1255;60932;-78
2023/01/10 12:21:40;;;;;;;50.80;27.40;;;;;;;6.13;92.02;100362.64;215644;1256;67842;-78
2023/01/10 12:26:34;;;;;;;49.50;26.80;;;;;;;6.16;91.86;100367.02;215778;1256;60624;-77
2023/01/10 12:31:31;;;;;;;53.10;25.30;;;;;;;6.16;92.08;100375.84;215836;1256;72565;-78
2023/01/10 12:36:39;;;;;;;51.30;25.00;;;;;;;6.16;92.13;100379.08;215699;1254;72578;-79
2023/01/10 12:47:00;;;;;;;44.70;25.90;;;;;;;6.13;91.85;100390.36;215769;1257;67086;-75
2023/01/10 12:52:10;;;;;;;49.30;24.50;;;;;;;6.15;91.62;100404.00;215597;1257;60516;-77
2023/01/10 12:57:16;;;;;;;52.20;26.40;;;;;;;6.16;91.80;100411.45;215882;1259;74573;-77
2023/01/10 13:02:21;;;;;;;55.20;29.10;;;;;;;6.20;91.72;100412.27;215590;1259;78103;-77
2023/01/10 13:07:16;;;;;;;48.20;25.30;;;;;;;6.20;91.73;100419.48;215635;1256;60457;-76
2023/01/10 13:12:34;;;;;;;45.00;26.40;;;;;;;6.19;91.64;100430.98;215590;1253;66787;-76
2023/01/10 13:17:33;;;;;;;49.20;25.60;;;;;;;6.17;91.60;100437.97;215810;1256;65186;-77
2023/01/10 13:22:27;;;;;;;45.90;25.00;;;;;;;6.14;91.56;100443.73;215787;1257;73989;-77
2023/01/10 13:27:21;;;;;;;48.00;27.00;;;;;;;6.14;91.68;100454.91;215693;1256;73632;-77
2023/01/10 13:32:24;;;;;;;49.20;26.30;;;;;;;6.13;91.58;100461.45;215661;1254;65985;-78
2023/01/10 13:37:29;;;;;;;48.90;27.80;;;;;;;6.10;91.60;100466.36;215680;1254;67085;-77
2023/01/10 13:47:43;;;;;;;41.10;23.80;;;;;;;6.09;91.66;100471.30;215820;1256;73800;-78
2023/01/10 13:52:36;;;;;;;44.00;25.20;;;;;;;6.06;91.59;100477.59;215638;1254;60345;-77
2023/01/10 13:57:49;;;;;;;44.50;25.10;;;;;;;6.04;91.62;100487.64;215716;1254;60433;-77
2023/01/10 14:02:45;;;;;;;45.60;26.60;;;;;;;6.02;91.67;100494.83;215712;1258;66948;-77
2023/01/10 14:07:49;;;;;;;41.10;23.80;;;;;;;5.97;91.56;100496.05;215712;1256;60469;-77
2023/01/10 14:12:54;;;;;;;55.40;30.10;;;;;;;5.95;91.68;100495.44;215694;1258;73665;-77
2023/01/10 14:17:58;;;;;;;41.00;24.90;;;;;;;5.93;91.58;100497.96;215763;1254;72608;-77
2023/01/10 14:22:59;;;;;;;41.90;24.10;;;;;;;5.92;91.64;100509.80;215616;1257;61720;-77
2023/01/10 14:27:55;;;;;;;38.80;24.30;;;;;;;5.90;91.62;100509.02;215713;1254;66966;-77
2023/01/10 14:32:51;;;;;;;38.00;23.40;;;;;;;5.89;91.56;100515.19;215735;1254;60583;-78
2023/01/10 14:37:51;;;;;;;35.80;22.70;;;;;;;5.86;91.48;100524.04;215629;1255;73672;-78
2023/01/10 14:42:48;;;;;;;33.50;21.80;;;;;;;5.85;91.63;100529.51;215775;1259;70399;-77
2023/01/10 14:47:41;;;;;;;36.50;24.90;;;;;;;5.83;91.60;100526.52;215846;1257;60555;-77
2023/01/10 14:52:34;;;;;;;35.10;22.60;;;;;;;5.80;91.48;100531.59;215646;1254;66838;-80
2023/01/10 14:57:28;;;;;;;35.50;23.40;;;;;;;5.78;91.53;100535.78;215728;1253;60447;-81
2023/01/10 15:02:23;;;;;;;39.90;26.10;;;;;;;5.76;91.52;100542.46;215730;1258;74655;-80
2023/01/10 15:07:16;;;;;;;36.20;24.00;;;;;;;5.76;91.42;100546.23;215979;1259;72584;-78
2023/01/10 15:12:13;;;;;;;34.90;21.90;;;;;;;5.75;91.39;100549.13;215930;1255;60450;-78
2023/01/10 15:17:11;;;;;;;35.00;24.00;;;;;;;5.74;91.35;100556.48;215819;1256;65775;-76
2023/01/10 15:22:18;;;;;;;40.90;22.40;;;;;;;5.73;91.25;100560.92;215722;1258;60450;-77
2023/01/10 15:27:15;;;;;;;35.20;24.00;;;;;;;5.70;91.14;100564.29;215678;1255;72560;-78
2023/01/10 15:32:20;;;;;;;38.20;23.20;;;;;;;5.68;91.12;100561.44;215612;1257;72378;-77
2023/01/10 15:37:22;;;;;;;34.00;22.40;;;;;;;5.65;91.21;100567.70;215784;1254;61453;-77
2023/01/10 15:42:15;;;;;;;36.60;21.30;;;;;;;5.64;91.07;100572.30;215800;1254;67053;-77
2023/01/10 15:47:35;;;;;;;31.60;19.60;;;;;;;5.62;91.02;100582.41;215693;1259;60538;-77
2023/01/10 15:52:28;;;;;;;30.40;21.10;;;;;;;5.61;91.04;100596.62;215756;1259;73808;-77
2023/01/10 15:57:26;;;;;;;30.60;20.60;;;;;;;5.59;90.90;100596.73;215700;1258;60460;-76
2023/01/10 16:02:23;;;;;;;29.40;20.50;;;;;;;5.56;90.96;100606.94;215695;1259;60460;-76
2023/01/10 16:07:23;;;;;;;31.40;19.60;;;;;;;5.56;90.96;100611.40;215712;1259;66920;-77
2023/01/10 16:17:39;;;;;;;31.10;21.20;;;;;;;5.53;90.80;100623.20;215747;1259;73739;-77
2023/01/10 16:22:34;;;;;;;32.70;21.60;;;;;;;5.52;90.52;100622.10;215816;1259;72589;-75
2023/01/10 16:27:28;;;;;;;38.30;23.90;;;;;;;5.50;90.51;100623.92;215720;1258;60456;-75
2023/01/10 16:32:21;;;;;;;31.70;20.40;;;;;;;5.49;90.03;100631.61;215815;1254;66910;-75
2023/01/10 16:37:14;;;;;;;36.00;21.10;;;;;;;5.45;90.09;100632.00;215875;1254;60441;-75
2023/01/10 16:47:17;;;;;;;43.50;24.60;;;;;;;5.43;89.89;100627.09;215661;1254;72628;-75
2023/01/10 16:52:13;;;;;;;34.60;21.60;;;;;;;5.42;89.93;100637.03;215718;1257;60476;-75
2023/01/10 16:57:06;;;;;;;111.90;62.90;;;;;;;5.41;89.86;100638.20;215819;1254;66860;-75
2023/01/10 17:01:59;;;;;;;43.70;23.80;;;;;;;5.40;89.68;100639.56;215866;1254;60555;-75
2023/01/10 17:06:52;;;;;;;29.80;20.30;;;;;;;5.39;89.57;100641.95;215970;1254;60331;-75
2023/01/10 17:11:45;;;;;;;30.20;18.50;;;;;;;5.38;89.49;100652.17;216005;1254;72489;-75
2023/01/10 17:16:38;;;;;;;33.50;19.10;;;;;;;5.34;89.41;100656.01;215910;1258;61222;-75
2023/01/10 17:21:31;;;;;;;28.30;17.80;;;;;;;5.31;89.25;100660.71;215840;1254;60443;-75
2023/01/10 17:26:24;;;;;;;30.50;18.90;;;;;;;5.25;89.06;100666.16;215773;1257;60526;-75
2023/01/10 17:31:18;;;;;;;25.30;17.30;;;;;;;5.21;89.13;100666.33;215929;1257;60530;-75
2023/01/10 17:36:11;;;;;;;24.40;16.10;;;;;;;5.17;89.06;100679.26;215773;1255;71674;-74
2023/01/10 17:41:06;;;;;;;28.70;18.00;;;;;;;5.10;88.95;100684.48;215838;1254;60511;-75
2023/01/10 17:45:59;;;;;;;29.10;19.20;;;;;;;5.04;89.06;100694.90;215804;1254;65608;-75
2023/01/10 17:50:57;;;;;;;31.60;19.80;;;;;;;5.00;89.07;100705.73;215732;1254;60492;-75
2023/01/10 17:55:51;;;;;;;32.80;21.30;;;;;;;4.95;89.16;100712.11;215693;1254;72816;-74
2023/01/10 18:00:45;;;;;;;33.70;22.10;;;;;;;4.94;89.06;100731.44;215811;1254;72588;-75
2023/01/10 18:05:38;;;;;;;35.80;23.60;;;;;;;4.90;89.06;100735.43;215747;1254;60477;-75
2023/01/10 18:10:32;;;;;;;34.20;23.00;;;;;;;4.87;89.04;100732.90;215625;1257;65831;-75
2023/01/10 18:15:27;;;;;;;34.40;23.20;;;;;;;4.85;89.15;100736.41;215814;1254;60543;-75
2023/01/10 18:20:20;;;;;;;38.10;25.50;;;;;;;4.82;89.07;100745.91;215716;1254;72591;-75
2023/01/10 18:25:14;;;;;;;34.30;23.30;;;;;;;4.78;88.98;100745.90;215803;1254;60476;-75
2023/01/10 18:30:08;;;;;;;34.40;23.60;;;;;;;4.74;89.24;100761.20;215774;1254;60626;-74
2023/01/10 18:35:00;;;;;;;36.50;22.70;;;;;;;4.69;89.04;100763.05;215766;1254;66066;-74
2023/01/10 18:39:53;;;;;;;35.10;23.20;;;;;;;4.62;89.00;100755.71;215811;1254;60568;-75
2023/01/10 18:44:46;;;;;;;44.00;25.00;;;;;;;4.55;89.08;100767.81;215691;1254;60572;-75
2023/01/10 18:49:39;;;;;;;39.00;24.00;;;;;;;4.47;89.01;100775.21;215705;1257;60467;-74
2023/01/10 18:54:32;;;;;;;37.30;23.50;;;;;;;4.38;88.91;100774.48;215837;1254;59449;-74
2023/01/10 18:59:25;;;;;;;34.60;22.00;;;;;;;4.28;89.00;100781.91;215788;1254;60500;-75
2023/01/10 19:04:18;;;;;;;36.80;21.90;;;;;;;4.17;88.91;100791.42;215709;1254;60468;-74
2023/01/10 19:09:11;;;;;;;34.70;23.40;;;;;;;4.09;89.16;100792.64;215739;1254;60712;-75
2023/01/10 19:14:04;;;;;;;38.90;22.50;;;;;;;4.07;89.21;100792.00;215730;1254;60596;-75
2023/01/10 19:18:59;;;;;;;39.10;26.00;;;;;;;4.05;89.18;100789.83;215769;1254;60476;-74
2023/01/10 19:23:55;;;;;;;37.00;24.70;;;;;;;4.06;89.35;100800.34;215778;1254;67987;-75
2023/01/10 19:28:48;;;;;;;35.40;22.90;;;;;;;4.07;89.36;100807.09;215771;1256;60526;-74
2023/01/10 19:33:42;;;;;;;36.60;23.90;;;;;;;4.09;89.40;100819.71;215821;1254;60270;-75
2023/01/10 19:38:35;;;;;;;38.30;24.10;;;;;;;4.12;89.48;100821.92;215708;1254;73634;-74
2023/01/10 19:43:29;;;;;;;32.50;22.20;;;;;;;4.14;89.33;100825.77;215732;1254;60482;-75
2023/01/10 19:48:23;;;;;;;36.40;24.80;;;;;;;4.15;89.42;100821.69;215725;1254;66350;-75
2023/01/10 19:53:22;;;;;;;35.00;23.60;;;;;;;4.16;89.35;100813.70;215722;1254;60504;-75
2023/01/10 19:58:15;;;;;;;44.40;27.60;;;;;;;4.16;89.17;100807.34;215812;1254;73572;-74
2023/01/10 20:03:08;;;;;;;30.10;21.60;;;;;;;4.16;89.18;100810.75;215746;1259;60338;-74
2023/01/10 20:08:02;;;;;;;32.60;21.70;;;;;;;4.13;88.98;100814.58;215740;1259;60599;-75
2023/01/10 20:12:55;;;;;;;30.00;20.80;;;;;;;4.11;89.14;100830.08;215671;1257;66048;-74
2023/01/10 20:17:48;;;;;;;29.80;20.60;;;;;;;4.09;89.06;100837.55;215734;1256;60439;-74
2023/01/10 20:22:41;;;;;;;36.30;21.30;;;;;;;4.08;89.12;100841.65;215814;1254;60446;-74
2023/01/10 20:27:35;;;;;;;38.20;24.20;;;;;;;4.07;88.94;100846.04;215780;1254;60572;-74
2023/01/10 20:32:30;;;;;;;37.20;23.50;;;;;;;4.05;88.97;100844.58;215767;1254;60430;-74
2023/01/10 20:37:23;;;;;;;36.80;23.40;;;;;;;4.01;88.98;100847.30;215763;1254;67972;-74
2023/01/10 20:42:16;;;;;;;36.20;22.50;;;;;;;3.95;88.85;100848.41;215833;1259;60476;-74
2023/01/10 20:47:09;;;;;;;30.90;21.00;;;;;;;3.89;88.66;100844.00;215803;1257;60557;-74
2023/01/10 20:52:03;;;;;;;37.20;23.80;;;;;;;3.78;88.61;100849.02;215798;1254;60428;-74
2023/01/10 20:56:55;;;;;;;29.00;18.60;;;;;;;3.69;88.87;100857.68;215743;1254;61037;-74
2023/01/10 21:01:48;;;;;;;28.10;19.70;;;;;;;3.57;88.34;100859.52;215844;1254;60469;-74
2023/01/10 21:06:41;;;;;;;30.90;21.20;;;;;;;3.44;88.42;100853.23;215832;1254;60844;-75
2023/01/10 21:11:34;;;;;;;29.40;21.10;;;;;;;3.35;88.82;100854.16;215723;1254;60443;-74
2023/01/10 21:16:44;;;;;;;30.70;20.90;;;;;;;3.25;88.74;100852.84;215791;1253;72739;-75
2023/01/10 21:21:39;;;;;;;32.60;20.90;;;;;;;3.18;88.64;100862.08;215723;1254;60476;-75
2023/01/10 21:26:32;;;;;;;32.90;21.00;;;;;;;3.11;88.49;100865.33;215661;1254;65914;-78
2023/01/10 21:31:25;;;;;;;30.50;19.90;;;;;;;3.11;88.84;100866.52;215683;1254;60544;-74
2023/01/10 21:36:18;;;;;;;34.10;21.60;;;;;;;3.18;89.27;100871.65;215803;1256;60454;-74
2023/01/10 21:42:32;;;;;;;36.30;24.20;;;;;;;3.26;89.41;100873.10;215823;1254;60996;-73
2023/01/10 21:46:31;;;;;;;41.20;23.90;;;;;;;3.35;89.42;100875.95;215766;1254;60582;-74
2023/01/10 21:51:24;;;;;;;36.00;23.90;;;;;;;3.38;89.26;100877.64;215599;1254;67047;-74
2023/01/10 21:56:17;;;;;;;32.10;22.10;;;;;;;3.38;89.23;100885.87;215701;1254;60635;-75
2023/01/10 22:01:10;;;;;;;35.10;23.50;;;;;;;3.39;89.00;100889.48;215792;1254;60521;-74
2023/01/10 22:06:03;;;;;;;40.40;26.60;;;;;;;3.38;89.26;100892.21;215687;1254;60459;-74
2023/01/10 22:10:56;;;;;;;42.40;27.90;;;;;;;3.33;89.25;100895.72;215584;1254;60454;-75
2023/01/10 22:15:49;;;;;;;48.60;31.00;;;;;;;3.27;88.99;100900.03;215648;1254;60569;-75
2023/01/10 22:20:46;;;;;;;42.00;26.20;;;;;;;3.22;88.91;100910.79;215464;1254;60371;-75
2023/01/10 22:25:39;;;;;;;49.60;30.20;;;;;;;3.16;88.84;100916.42;215645;1254;73126;-75
2023/01/10 22:30:32;;;;;;;50.30;31.00;;;;;;;3.06;89.05;100914.42;215499;1257;71113;-75
2023/01/10 22:35:26;;;;;;;49.50;31.30;;;;;;;2.98;89.12;100913.68;215608;1254;60491;-75
2023/01/10 22:40:19;;;;;;;50.20;29.60;;;;;;;2.96;89.32;100918.02;215575;1254;67707;-75
2023/01/10 22:45:11;;;;;;;55.80;32.40;;;;;;;2.93;89.36;100924.04;215586;1254;60469;-74
2023/01/10 22:50:05;;;;;;;52.00;31.10;;;;;;;2.90;89.22;100921.66;215629;1259;60492;-75
2023/01/10 22:55:00;;;;;;;50.90;30.80;;;;;;;2.86;89.45;100923.02;215598;1254;72423;-75
2023/01/10 22:59:53;;;;;;;57.20;29.70;;;;;;;2.81;89.08;100926.52;215448;1254;60578;-75